createdAt,value
2022-09-04T00:02:41.656Z,12.50
2022-09-04T00:08:34.986Z,13.85
2022-09-04T00:11:13.741Z,13.45
2022-09-04T00:14:00.081Z,13.88
2022-09-04T00:16:43.361Z,13.68
2022-09-04T00:19:39.605Z,13.83
2022-09-04T00:22:36.329Z,13.78
2022-09-04T00:25:25.074Z,14.47
2022-09-04T00:28:08.762Z,13.65
2022-09-04T00:30:44.890Z,12.63
2022-09-04T00:33:36.580Z,12.73
2022-09-04T00:36:07.839Z,12.00
2022-09-04T00:38:55.090Z,11.08
2022-09-04T00:41:44.019Z,12.25
2022-09-04T00:44:44.958Z,12.05
2022-09-04T00:57:44.114Z,12.25
2022-09-04T01:00:23.699Z,11.63
2022-09-04T01:03:04.402Z,11.65
2022-09-04T01:06:04.498Z,10.78
2022-09-04T01:08:56.690Z,11.68
2022-09-04T01:11:48.550Z,11.55
2022-09-04T01:14:29.933Z,11.93
2022-09-04T01:17:26.190Z,12.23
2022-09-04T01:20:19.067Z,11.97
2022-09-04T01:22:53.921Z,12.10
2022-09-04T01:25:48.454Z,12.55
2022-09-04T01:28:41.435Z,11.80
2022-09-04T01:31:32.664Z,12.98
2022-09-04T01:34:28.586Z,12.00
2022-09-04T01:37:35.361Z,12.43
2022-09-04T01:40:35.169Z,11.90
2022-09-04T01:43:06.020Z,12.80
2022-09-04T01:46:11.433Z,12.10
2022-09-04T01:48:52.410Z,11.57
2022-09-04T01:51:43.158Z,12.43
2022-09-04T01:54:26.462Z,12.00
2022-09-04T01:57:08.979Z,12.13
2022-09-04T02:00:00.903Z,11.97
2022-09-04T02:03:06.280Z,12.43
2022-09-04T02:05:48.663Z,11.45
2022-09-04T02:08:20.672Z,12.00
2022-09-04T02:11:12.993Z,12.63
2022-09-04T02:14:03.488Z,12.50
2022-09-04T02:16:44.086Z,12.33
2022-09-04T02:19:25.017Z,12.05
2022-09-04T02:22:12.800Z,12.65
2022-09-04T02:25:03.958Z,12.25
2022-09-04T02:28:06.363Z,11.48
2022-09-04T02:30:44.389Z,12.13
2022-09-04T02:33:28.848Z,12.20
2022-09-04T02:36:16.436Z,12.03
2022-09-04T02:39:05.965Z,11.97
2022-09-04T02:41:51.247Z,11.63
2022-09-04T02:44:33.532Z,11.83
2022-09-04T02:47:07.994Z,11.38
2022-09-04T02:49:47.055Z,11.63
2022-09-04T02:52:44.941Z,11.78
2022-09-04T02:55:34.440Z,12.85
2022-09-04T02:58:40.533Z,13.58
2022-09-04T03:01:32.466Z,16.02
2022-09-04T03:07:39.783Z,21.07
2022-09-04T03:10:23.469Z,23.50
2022-09-04T03:13:04.300Z,25.35
2022-09-04T03:15:56.140Z,27.48
2022-09-04T03:18:32.383Z,26.73
2022-09-04T03:21:09.359Z,27.87
2022-09-04T03:24:07.174Z,29.35
2022-09-04T03:26:43.765Z,25.77
2022-09-04T03:29:33.471Z,25.77
2022-09-04T03:32:16.032Z,25.37
2022-09-04T03:35:13.754Z,24.63
2022-09-04T03:38:17.392Z,22.40
2022-09-04T03:40:55.586Z,16.85
2022-09-04T03:43:39.007Z,18.05
2022-09-04T03:46:16.447Z,17.17
2022-09-04T03:49:12.407Z,18.00
2022-09-04T03:52:07.363Z,18.48
2022-09-04T03:55:00.064Z,17.50
2022-09-04T03:57:52.964Z,17.25
2022-09-04T04:00:23.947Z,17.20
2022-09-04T04:03:11.436Z,17.90
2022-09-04T04:05:48.843Z,16.67
2022-09-04T04:08:38.577Z,17.62
2022-09-04T04:11:45.536Z,18.02
2022-09-04T04:14:22.949Z,16.60
2022-09-04T04:17:12.452Z,16.50
2022-09-04T04:20:05.915Z,18.02
2022-09-04T04:23:05.006Z,16.37
2022-09-04T04:26:01.265Z,18.05
2022-09-04T04:29:08.816Z,16.85
2022-09-04T04:32:08.583Z,17.57
2022-09-04T04:34:54.038Z,18.00
2022-09-04T04:37:56.488Z,17.50
2022-09-04T04:40:32.706Z,16.60
2022-09-04T04:43:04.686Z,15.75
2022-09-04T04:45:59.333Z,15.80
2022-09-04T04:48:53.425Z,15.43
2022-09-04T04:51:35.454Z,15.95
2022-09-04T04:54:37.636Z,16.15
2022-09-04T04:57:10.716Z,17.45
2022-09-04T04:59:56.082Z,17.62
2022-09-04T05:02:33.591Z,17.42
2022-09-04T05:05:14.565Z,16.25
2022-09-04T05:07:48.976Z,15.95
2022-09-04T05:10:34.251Z,16.75
2022-09-04T05:13:16.548Z,15.30
2022-09-04T05:16:07.496Z,17.92
2022-09-04T05:18:30.492Z,18.10
2022-09-04T05:21:06.791Z,16.57
2022-09-04T05:23:47.097Z,16.55
2022-09-04T05:26:39.602Z,18.40
2022-09-04T05:29:22.863Z,18.62
2022-09-04T05:32:09.384Z,16.50
2022-09-04T05:34:58.447Z,17.55
2022-09-04T05:38:08.862Z,18.15
2022-09-04T05:40:52.757Z,17.00
2022-09-04T05:43:42.157Z,18.67
2022-09-04T05:46:45.880Z,18.10
2022-09-04T05:49:49.922Z,17.10
2022-09-04T05:52:49.110Z,17.42
2022-09-04T05:55:26.922Z,17.45
2022-09-04T05:58:44.365Z,19.73
2022-09-04T06:01:52.472Z,21.25
2022-09-04T06:04:38.447Z,23.95
2022-09-04T06:10:40.534Z,30.05
2022-09-04T06:13:15.044Z,30.08
2022-09-04T06:16:19.377Z,28.20
2022-09-04T06:19:06.371Z,31.52
2022-09-04T06:21:50.394Z,31.60
2022-09-04T06:24:37.207Z,31.77
2022-09-04T06:27:26.498Z,31.37
2022-09-04T06:30:11.643Z,29.15
2022-09-04T06:32:49.443Z,28.00
2022-09-04T06:35:40.290Z,27.45
2022-09-04T06:38:43.200Z,27.62
2022-09-04T06:41:32.126Z,27.95
2022-09-04T06:44:36.109Z,25.37
2022-09-04T06:47:42.856Z,24.32
2022-09-04T06:50:34.032Z,22.52
2022-09-04T06:53:20.144Z,24.85
2022-09-04T06:56:08.595Z,24.70
2022-09-04T06:59:14.177Z,23.52
2022-09-04T07:02:08.804Z,22.82
2022-09-04T07:04:48.289Z,23.85
2022-09-04T07:07:22.566Z,23.00
2022-09-04T07:10:05.145Z,24.92
2022-09-04T07:12:51.609Z,23.45
2022-09-04T07:15:43.159Z,24.00
2022-09-04T07:18:40.360Z,21.48
2022-09-04T07:21:30.408Z,21.12
2022-09-04T07:24:10.577Z,20.40
2022-09-04T07:27:06.514Z,19.67
2022-09-04T07:29:38.594Z,22.75
2022-09-04T07:32:18.732Z,20.37
2022-09-04T07:35:33.916Z,19.35
2022-09-04T07:44:51.070Z,18.32
2022-09-04T07:47:26.941Z,16.07
2022-09-04T07:53:35.813Z,16.27
2022-09-04T07:56:35.922Z,16.17
2022-09-04T07:59:20.684Z,15.88
2022-09-04T08:02:09.932Z,17.12
2022-09-04T08:04:59.574Z,15.72
2022-09-04T08:07:44.639Z,16.57
2022-09-04T08:10:33.859Z,16.02
2022-09-04T08:13:23.351Z,17.23
2022-09-04T08:15:56.222Z,15.70
2022-09-04T08:18:43.719Z,16.07
2022-09-04T08:21:30.766Z,16.12
2022-09-04T08:24:13.554Z,15.30
2022-09-04T08:30:24.907Z,14.35
2022-09-04T08:33:37.034Z,13.40
2022-09-04T08:36:30.794Z,13.93
2022-09-04T08:39:23.094Z,12.35
2022-09-04T08:42:15.412Z,12.33
2022-09-04T08:45:20.751Z,12.03
2022-09-04T08:48:22.635Z,12.33
2022-09-04T08:51:21.083Z,11.43
2022-09-04T08:54:07.688Z,10.95
2022-09-04T08:56:55.629Z,10.15
2022-09-04T08:59:51.438Z,9.80
2022-09-04T09:02:32.166Z,9.25
2022-09-04T09:05:30.096Z,9.90
2022-09-04T09:08:13.704Z,21.45
2022-09-04T09:18:40.943Z,10.75
2022-09-04T09:21:18.984Z,8.10
2022-09-04T09:24:06.577Z,7.60
2022-09-04T09:44:01.881Z,7.05
2022-09-04T10:04:22.244Z,5.50
2022-09-04T10:21:05.126Z,6.58
2022-09-04T10:24:22.882Z,6.15
2022-09-04T10:37:00.110Z,6.10
2022-09-04T10:40:08.074Z,6.00
2022-09-04T10:43:42.446Z,5.65
2022-09-04T10:46:24.941Z,5.72
2022-09-04T10:49:08.493Z,5.78
2022-09-04T10:54:58.686Z,6.03
2022-09-04T10:59:18.657Z,6.03
2022-09-04T11:01:03.481Z,5.95
2022-09-04T11:04:01.343Z,5.80
2022-09-04T11:07:05.308Z,5.40
2022-09-04T11:24:36.740Z,5.70
2022-09-04T11:30:29.654Z,5.00
2022-09-04T11:33:58.073Z,4.67
2022-09-04T11:37:06.243Z,4.83
2022-09-04T11:40:24.709Z,4.70
2022-09-04T11:48:08.448Z,5.22
2022-09-04T11:50:48.690Z,4.92
2022-09-04T12:00:36.286Z,4.20
2022-09-04T12:04:07.324Z,4.60
2022-09-04T12:06:28.140Z,5.05
2022-09-04T12:22:03.434Z,3.60
2022-09-04T12:28:53.423Z,3.62
2022-09-04T12:39:02.390Z,4.28
2022-09-04T12:41:58.405Z,3.92
2022-09-04T12:44:42.645Z,3.40
2022-09-04T12:47:33.577Z,3.33
2022-09-04T12:50:13.524Z,3.20
2022-09-04T12:53:04.940Z,3.20
2022-09-04T12:55:57.748Z,4.20
2022-09-04T13:11:47.526Z,3.27
2022-09-04T13:17:55.758Z,3.08
2022-09-04T13:20:54.330Z,2.95
2022-09-04T13:23:46.593Z,3.20
2022-09-04T13:26:33.929Z,2.87
2022-09-04T13:29:08.624Z,3.08
2022-09-04T13:32:16.329Z,3.62
2022-09-04T13:35:00.407Z,3.02
2022-09-04T13:37:54.503Z,3.17
2022-09-04T13:40:46.101Z,2.92
2022-09-04T13:43:23.796Z,3.08
2022-09-04T13:45:59.638Z,3.25
2022-09-04T13:48:33.814Z,3.30
2022-09-04T13:51:07.302Z,3.12
2022-09-04T13:54:00.073Z,3.17
2022-09-04T13:56:37.239Z,2.92
2022-09-04T13:59:12.076Z,2.77
2022-09-04T14:01:46.561Z,3.00
2022-09-04T14:07:56.448Z,2.83
2022-09-04T14:13:53.773Z,2.50
2022-09-04T14:27:08.166Z,3.00
2022-09-04T14:30:01.070Z,3.30
2022-09-04T14:32:34.665Z,3.62
2022-09-04T14:35:30.808Z,3.45
2022-09-04T14:38:41.991Z,3.52
2022-09-04T14:41:43.846Z,3.08
2022-09-04T14:44:20.734Z,4.12
2022-09-04T14:47:12.174Z,3.83
2022-09-04T14:49:48.749Z,3.20
2022-09-04T14:52:24.094Z,3.00
2022-09-04T14:54:57.405Z,3.52
2022-09-04T14:57:46.429Z,2.77
2022-09-04T15:00:26.336Z,2.83
2022-09-04T15:03:19.025Z,3.92
2022-09-04T15:05:59.566Z,3.00
2022-09-04T15:08:40.161Z,2.62
2022-09-04T15:11:09.431Z,2.75
2022-09-04T15:13:56.794Z,2.40
2022-09-04T15:16:31.656Z,3.02
2022-09-04T15:19:40.381Z,2.85
2022-09-04T15:22:28.539Z,3.20
2022-09-04T15:25:08.908Z,2.90
2022-09-04T15:28:06.943Z,2.87
2022-09-04T15:30:43.703Z,2.92
2022-09-04T15:33:17.378Z,3.08
2022-09-04T15:36:13.830Z,2.85
2022-09-04T15:38:51.016Z,3.45
2022-09-04T15:41:50.727Z,3.05
2022-09-04T15:44:34.317Z,4.08
2022-09-04T15:47:17.423Z,3.70
2022-09-04T15:50:04.592Z,3.12
2022-09-04T15:53:00.392Z,3.30
2022-09-04T15:55:43.695Z,3.83
2022-09-04T15:58:41.164Z,3.30
2022-09-04T16:01:17.112Z,3.00
2022-09-04T16:04:07.402Z,3.37
2022-09-04T16:06:58.551Z,2.92
2022-09-04T16:16:04.705Z,3.47
2022-09-04T16:18:36.459Z,3.60
2022-09-04T16:21:15.739Z,3.02
2022-09-04T16:23:47.065Z,3.58
2022-09-04T16:26:23.050Z,3.67
2022-09-04T16:28:56.436Z,4.00
2022-09-04T16:31:31.348Z,6.95
2022-09-04T16:34:03.202Z,4.85
2022-09-04T16:36:51.284Z,3.98
2022-09-04T16:39:22.993Z,4.60
2022-09-04T16:41:54.663Z,4.15
2022-09-04T16:44:52.932Z,4.47
2022-09-04T16:47:35.242Z,4.05
2022-09-04T16:50:45.078Z,5.05
2022-09-04T16:53:18.494Z,4.42
2022-09-04T16:56:08.568Z,4.78
2022-09-04T16:58:50.367Z,4.85
2022-09-04T17:01:43.465Z,5.00
2022-09-04T17:29:18.801Z,5.47
2022-09-04T18:50:32.157Z,7.60
2022-09-04T19:53:34.662Z,6.83
2022-09-04T19:55:03.003Z,5.85
2022-09-04T20:00:43.890Z,5.40
2022-09-04T20:14:14.050Z,6.12
2022-09-04T20:16:48.651Z,5.42
2022-09-04T20:25:52.408Z,5.28
2022-09-04T20:28:48.773Z,5.37
2022-09-04T20:31:36.819Z,5.30
2022-09-04T20:34:45.593Z,5.08
2022-09-04T20:40:46.454Z,5.55
2022-09-04T20:43:47.859Z,6.05
2022-09-04T20:52:45.878Z,5.65
2022-09-04T20:52:50.485Z,5.87
2022-09-04T20:53:04.554Z,5.35
2022-09-04T21:03:19.858Z,5.22
2022-09-04T21:04:01.522Z,5.70
2022-09-04T21:06:57.674Z,5.25
2022-09-04T21:13:14.202Z,5.00
2022-09-04T21:15:54.952Z,4.78
2022-09-04T21:19:28.558Z,5.80
2022-09-04T21:28:48.615Z,6.22
2022-09-04T21:31:43.956Z,5.10
2022-09-04T21:34:37.596Z,5.47
2022-09-04T21:40:51.074Z,5.42
2022-09-04T21:43:41.054Z,6.10
2022-09-04T21:46:29.519Z,6.50
2022-09-04T23:55:00.027Z,6.62
